Time;durP1;ratioP1;P1;durP2;ratioP2;P2;SDS_P1;SDS_P2;PMS_P1;PMS_P2;Temp;Humidity;BMP_temperature;BMP_pressure;BME280_temperature;BME280_humidity;BME280_pressure;Samples;Min_cycle;Max_cycle;Signal;HPM_P1;HPM_P2
2022/04/15 00:01:32;;;;;;;3.35;1.77;;;18.70;65.20;;;;;;4996056;28;20480;-69
2022/04/15 00:03:58;;;;;;;4.47;1.98;;;18.70;65.30;;;;;;5012956;28;20033;-70
2022/04/15 00:06:24;;;;;;;2.72;1.85;;;18.70;65.30;;;;;;4996543;28;20026;-69
2022/04/15 00:08:50;;;;;;;3.15;1.85;;;18.70;65.30;;;;;;4980496;28;20042;-70
2022/04/15 00:11:16;;;;;;;3.92;1.83;;;18.70;65.30;;;;;;4980279;28;20041;-70
2022/04/15 00:13:42;;;;;;;2.53;1.95;;;18.70;65.40;;;;;;4996468;28;20038;-70
2022/04/15 00:16:08;;;;;;;4.43;2.92;;;18.70;65.40;;;;;;5004036;28;20117;-70
2022/04/15 00:18:34;;;;;;;3.35;2.08;;;18.70;65.50;;;;;;5014970;28;20066;-70
2022/04/15 00:21:00;;;;;;;2.50;1.83;;;18.70;65.40;;;;;;5013385;28;20058;-70
2022/04/15 00:23:26;;;;;;;2.95;1.90;;;18.70;65.40;;;;;;5013200;28;20026;-70
2022/04/15 00:25:52;;;;;;;2.60;1.95;;;18.80;65.50;;;;;;5013445;28;20080;-70
2022/04/15 00:28:18;;;;;;;2.03;1.58;;;18.70;65.50;;;;;;5014429;28;20036;-70
2022/04/15 00:30:43;;;;;;;2.95;1.80;;;18.70;65.50;;;;;;5013148;28;20022;-70
2022/04/15 00:33:09;;;;;;;3.38;2.00;;;18.70;65.50;;;;;;5013434;28;20117;-70
2022/04/15 00:35:35;;;;;;;3.45;2.20;;;18.70;65.50;;;;;;5025197;28;20029;-70
2022/04/15 00:38:00;;;;;;;3.75;1.88;;;18.70;65.50;;;;;;5034194;28;20064;-70
2022/04/15 00:40:26;;;;;;;1.92;1.73;;;18.70;65.50;;;;;;5032714;28;20041;-70
2022/04/15 00:42:52;;;;;;;5.57;1.70;;;18.70;65.60;;;;;;5032819;28;20036;-70
2022/04/15 00:45:18;;;;;;;1.88;1.63;;;18.70;65.60;;;;;;5032703;28;20369;-70
2022/04/15 00:47:56;;;;;;;2.97;2.00;;;18.70;65.60;;;;;;5032586;28;20077;-70
2022/04/15 00:50:26;;;;;;;2.75;1.65;;;18.70;65.60;;;;;;5034039;28;20022;-70
2022/04/15 00:52:53;;;;;;;2.63;1.80;;;18.70;65.60;;;;;;5033691;28;20439;-70
2022/04/15 00:55:21;;;;;;;3.25;1.70;;;18.70;65.70;;;;;;5032773;28;20014;-70
2022/04/15 00:57:55;;;;;;;2.88;1.67;;;18.70;65.70;;;;;;5016103;28;20458;-70
2022/04/15 01:00:21;;;;;;;2.92;1.70;;;18.70;65.70;;;;;;5013531;28;20018;-70
2022/04/15 01:02:46;;;;;;;4.55;1.75;;;18.70;65.80;;;;;;5013959;28;20029;-70
2022/04/15 01:05:13;;;;;;;3.47;1.83;;;18.70;65.80;;;;;;5013784;28;20539;-70
2022/04/15 01:07:40;;;;;;;3.13;1.70;;;18.70;65.70;;;;;;5012459;28;20022;-70
2022/04/15 01:10:08;;;;;;;2.10;1.42;;;18.70;65.80;;;;;;5012686;28;20025;-70
2022/04/15 01:12:38;;;;;;;7.13;1.70;;;18.70;65.80;;;;;;5012447;28;20026;-70
2022/04/15 01:15:09;;;;;;;5.25;2.05;;;18.70;65.80;;;;;;5012221;28;20033;-70
2022/04/15 01:17:35;;;;;;;2.50;1.88;;;18.70;65.80;;;;;;5013530;28;20037;-70
2022/04/15 01:20:02;;;;;;;1.88;1.50;;;18.70;65.90;;;;;;5012717;28;20022;-70
2022/04/15 01:22:32;;;;;;;2.50;1.50;;;18.70;65.90;;;;;;5012082;28;20029;-70
2022/04/15 01:24:57;;;;;;;2.67;1.55;;;18.70;66.00;;;;;;5012256;28;20109;-70
2022/04/15 01:27:33;;;;;;;2.03;1.58;;;18.70;66.00;;;;;;5013502;28;20127;-70
2022/04/15 01:29:58;;;;;;;2.85;1.67;;;18.70;66.00;;;;;;5012174;28;20025;-70
2022/04/15 01:32:24;;;;;;;2.78;1.52;;;18.70;66.00;;;;;;5013219;28;20030;-70
2022/04/15 01:34:50;;;;;;;1.58;1.48;;;18.70;66.00;;;;;;5019417;28;20112;-70
2022/04/15 01:37:16;;;;;;;3.25;1.90;;;18.70;66.00;;;;;;5033113;28;20029;-70
2022/04/15 01:39:42;;;;;;;2.55;1.60;;;18.70;66.00;;;;;;5031833;28;20025;-70
2022/04/15 01:42:14;;;;;;;4.13;1.58;;;18.70;66.10;;;;;;5031562;28;20113;-70
2022/04/15 01:44:40;;;;;;;2.30;1.73;;;18.70;66.10;;;;;;5031562;28;20484;-70
2022/04/15 01:47:07;;;;;;;1.67;1.52;;;18.70;66.20;;;;;;5031511;28;20067;-70
2022/04/15 01:49:32;;;;;;;4.63;1.55;;;18.70;66.20;;;;;;5031608;28;20013;-71
2022/04/15 01:51:58;;;;;;;2.35;1.50;;;18.70;66.20;;;;;;5032803;28;20557;-70
2022/04/15 01:54:23;;;;;;;2.15;1.70;;;18.70;66.20;;;;;;5032662;28;20495;-70
2022/04/15 01:56:49;;;;;;;2.55;1.60;;;18.70;66.20;;;;;;5031324;28;20025;-70
2022/04/15 01:59:15;;;;;;;1.95;1.60;;;18.70;66.20;;;;;;5022563;28;20077;-70
2022/04/15 02:01:40;;;;;;;2.53;1.70;;;18.70;66.30;;;;;;5011530;28;20062;-70
2022/04/15 02:04:06;;;;;;;2.97;1.55;;;18.70;66.20;;;;;;5012909;28;20069;-70
2022/04/15 02:06:32;;;;;;;3.03;1.10;;;18.70;66.30;;;;;;5011756;28;20084;-70
2022/04/15 02:08:57;;;;;;;6.63;2.00;;;18.70;66.30;;;;;;5012899;28;20029;-70
2022/04/15 02:11:23;;;;;;;3.63;1.80;;;18.70;66.30;;;;;;5012629;28;20033;-70
2022/04/15 02:13:48;;;;;;;2.72;1.80;;;18.70;66.40;;;;;;5012623;28;20025;-71
2022/04/15 02:16:14;;;;;;;3.45;1.60;;;18.70;66.40;;;;;;5011543;28;20072;-71
2022/04/15 02:18:40;;;;;;;2.03;1.45;;;18.70;66.40;;;;;;5012669;28;20492;-71
2022/04/15 02:21:05;;;;;;;2.97;1.65;;;18.70;66.40;;;;;;5012494;28;20354;-70
2022/04/15 02:23:31;;;;;;;2.55;1.80;;;18.70;66.40;;;;;;5012484;28;20026;-70
2022/04/15 02:25:56;;;;;;;4.07;1.30;;;18.70;66.40;;;;;;5012956;28;20076;-70
2022/04/15 02:28:22;;;;;;;3.88;1.30;;;18.70;66.50;;;;;;5011439;28;20064;-70
2022/04/15 02:30:48;;;;;;;1.42;1.23;;;18.70;66.50;;;;;;5011254;28;20088;-70
2022/04/15 02:33:14;;;;;;;1.55;1.38;;;18.70;66.50;;;;;;5012781;28;20026;-70
2022/04/15 02:35:40;;;;;;;1.45;1.35;;;18.70;66.50;;;;;;5025398;28;20038;-70
2022/04/15 02:38:06;;;;;;;3.17;1.50;;;18.70;66.60;;;;;;5032260;28;20025;-70
2022/04/15 02:40:31;;;;;;;2.42;1.40;;;18.70;66.50;;;;;;5031759;28;20029;-70
2022/04/15 02:42:57;;;;;;;2.63;1.27;;;18.70;66.60;;;;;;5032096;28;20032;-70
2022/04/15 02:45:22;;;;;;;2.08;1.35;;;18.70;66.60;;;;;;5031262;28;20035;-70
2022/04/15 02:47:49;;;;;;;3.95;1.35;;;18.60;66.60;;;;;;5030910;28;20041;-70
2022/04/15 02:50:14;;;;;;;2.47;1.40;;;18.70;66.70;;;;;;5031004;28;20021;-70
2022/04/15 02:52:40;;;;;;;2.97;1.92;;;18.60;66.70;;;;;;5030855;28;20109;-70
2022/04/15 02:55:06;;;;;;;1.55;1.45;;;18.70;66.70;;;;;;5030716;28;20084;-70
2022/04/15 02:57:32;;;;;;;1.98;1.73;;;18.60;66.60;;;;;;5032241;28;20025;-70
2022/04/15 02:59:58;;;;;;;2.90;1.40;;;18.70;66.70;;;;;;5017314;28;20029;-70
2022/04/15 03:02:27;;;;;;;2.35;1.20;;;18.70;66.70;;;;;;5011050;28;20024;-70
2022/04/15 03:04:53;;;;;;;2.42;1.70;;;18.70;66.70;;;;;;5012064;28;20539;-70
2022/04/15 03:07:18;;;;;;;2.50;1.45;;;18.70;66.70;;;;;;5011164;28;20026;-70
2022/04/15 03:09:44;;;;;;;2.97;1.52;;;18.60;66.70;;;;;;5010996;28;20033;-70
2022/04/15 03:12:10;;;;;;;1.98;1.45;;;18.60;66.70;;;;;;5012383;28;20029;-70
2022/04/15 03:14:36;;;;;;;1.52;1.35;;;18.60;66.70;;;;;;5012017;28;20022;-70
2022/04/15 03:17:02;;;;;;;2.38;1.42;;;18.60;66.70;;;;;;5010987;28;20076;-70
2022/04/15 03:19:27;;;;;;;1.90;1.27;;;18.60;66.70;;;;;;5010948;28;20026;-70
2022/04/15 03:21:53;;;;;;;1.45;1.13;;;18.60;66.70;;;;;;5011928;28;20108;-70
2022/04/15 03:24:18;;;;;;;2.28;1.35;;;18.70;66.90;;;;;;5014937;28;20026;-70
2022/04/15 03:26:44;;;;;;;2.28;1.50;;;18.60;66.90;;;;;;5015693;28;20018;-70
2022/04/15 03:29:10;;;;;;;2.67;1.40;;;18.60;66.80;;;;;;5015632;28;20559;-70
2022/04/15 03:31:35;;;;;;;2.58;1.50;;;18.60;66.80;;;;;;5014597;28;20051;-70
2022/04/15 03:34:01;;;;;;;1.35;1.25;;;18.60;66.90;;;;;;5015589;28;20468;-70
2022/04/15 03:36:27;;;;;;;1.85;1.40;;;18.60;66.90;;;;;;5034893;28;20033;-70
2022/04/15 03:38:52;;;;;;;1.50;1.40;;;18.60;66.90;;;;;;5033862;28;20028;-70
2022/04/15 03:41:18;;;;;;;2.70;1.40;;;18.60;66.90;;;;;;5035243;28;20083;-70
2022/04/15 03:43:44;;;;;;;1.92;1.58;;;18.60;66.90;;;;;;5035091;28;20076;-70
2022/04/15 03:46:09;;;;;;;1.77;1.38;;;18.60;66.90;;;;;;5035117;28;20037;-70
2022/04/15 03:48:35;;;;;;;1.70;1.15;;;18.60;66.90;;;;;;5034017;28;20064;-70
2022/04/15 03:51:01;;;;;;;2.45;1.50;;;18.60;66.90;;;;;;5033859;28;20112;-70
2022/04/15 03:53:26;;;;;;;4.88;1.42;;;18.60;67.00;;;;;;5033487;28;20388;-70
2022/04/15 03:55:52;;;;;;;1.55;1.30;;;18.60;67.40;;;;;;5033865;28;20565;-70
2022/04/15 03:58:18;;;;;;;1.77;1.20;;;18.60;67.00;;;;;;5032656;28;20033;-70
2022/04/15 04:00:46;;;;;;;2.13;1.30;;;18.60;67.00;;;;;;5015007;28;20518;-70
2022/04/15 04:03:13;;;;;;;1.65;1.30;;;18.60;67.10;;;;;;5015124;28;20060;-70
2022/04/15 04:05:39;;;;;;;1.92;1.45;;;18.60;67.10;;;;;;5014910;28;20022;-71
2022/04/15 04:08:05;;;;;;;2.00;1.35;;;18.60;67.00;;;;;;5013530;28;20076;-70
2022/04/15 04:10:31;;;;;;;1.67;1.13;;;18.60;67.10;;;;;;5014991;28;20381;-70
2022/04/15 04:12:58;;;;;;;1.35;1.25;;;18.60;67.10;;;;;;5013657;28;20037;-70
2022/04/15 04:15:23;;;;;;;2.88;1.38;;;18.60;67.10;;;;;;5015073;28;20022;-70
2022/04/15 04:17:49;;;;;;;1.65;1.30;;;18.60;67.10;;;;;;5013615;28;20048;-70
2022/04/15 04:20:16;;;;;;;2.63;1.33;;;18.60;67.10;;;;;;5013492;28;20026;-70
2022/04/15 04:22:41;;;;;;;1.80;1.38;;;18.60;67.10;;;;;;5014319;28;20034;-71
2022/04/15 04:25:08;;;;;;;1.95;1.08;;;18.60;67.10;;;;;;5013616;28;20026;-70
2022/04/15 04:27:36;;;;;;;2.72;1.20;;;18.50;67.10;;;;;;5013510;28;20032;-70
2022/04/15 04:30:02;;;;;;;1.25;1.15;;;18.60;67.20;;;;;;5013298;28;20096;-70
2022/04/15 04:32:28;;;;;;;1.67;1.25;;;18.60;67.20;;;;;;5013255;28;20029;-70
2022/04/15 04:34:53;;;;;;;1.40;1.30;;;18.60;67.20;;;;;;5019607;28;20116;-70
2022/04/15 04:37:19;;;;;;;2.33;1.23;;;18.60;67.20;;;;;;5034103;28;20510;-70
2022/04/15 04:39:45;;;;;;;1.52;1.42;;;18.60;68.20;;;;;;5032970;28;20029;-70
2022/04/15 04:42:10;;;;;;;1.30;1.05;;;18.60;67.20;;;;;;5033889;28;20030;-70
2022/04/15 04:44:37;;;;;;;1.23;1.13;;;18.60;67.30;;;;;;5033031;28;20026;-70
2022/04/15 04:47:03;;;;;;;1.33;1.20;;;18.60;67.20;;;;;;5032518;28;20099;-70
2022/04/15 04:49:29;;;;;;;1.30;1.05;;;18.50;67.20;;;;;;5030223;28;20443;-70
2022/04/15 04:51:54;;;;;;;2.65;1.00;;;18.60;67.30;;;;;;5063052;28;20051;-70
2022/04/15 04:54:20;;;;;;;3.22;1.40;;;18.60;67.30;;;;;;5013747;28;20030;-70
2022/04/15 04:56:46;;;;;;;3.05;1.40;;;18.50;67.30;;;;;;5031707;28;20031;-70
2022/04/15 04:59:11;;;;;;;1.20;1.02;;;18.60;67.40;;;;;;5063614;28;20092;-70
2022/04/15 05:01:37;;;;;;;1.50;1.00;;;18.50;67.40;;;;;;5034281;28;20029;-70
2022/04/15 05:04:02;;;;;;;1.40;1.27;;;18.50;67.40;;;;;;5034707;28;20013;-70
2022/04/15 05:06:28;;;;;;;1.20;1.10;;;18.60;67.50;;;;;;5035486;28;20021;-70
2022/04/15 05:08:54;;;;;;;1.92;1.13;;;18.50;67.40;;;;;;5033787;28;20075;-70
2022/04/15 05:11:19;;;;;;;1.65;1.08;;;18.50;67.40;;;;;;5031708;28;20036;-70
2022/04/15 05:13:45;;;;;;;1.80;1.42;;;18.60;67.50;;;;;;5031722;28;20022;-70
2022/04/15 05:16:11;;;;;;;0.90;0.90;;;18.60;67.60;;;;;;5035923;28;20025;-70
2022/04/15 05:18:36;;;;;;;2.45;0.80;;;18.60;67.50;;;;;;5033692;28;20048;-70
2022/04/15 05:21:02;;;;;;;1.02;0.93;;;18.60;67.60;;;;;;5031179;28;20033;-70
2022/04/15 05:23:27;;;;;;;1.10;1.00;;;18.50;67.60;;;;;;5061502;28;20025;-70
2022/04/15 05:25:53;;;;;;;1.35;1.00;;;18.50;67.50;;;;;;5063192;28;20040;-70
2022/04/15 05:28:19;;;;;;;1.45;1.00;;;18.50;67.60;;;;;;5031347;28;20022;-70
2022/04/15 05:30:44;;;;;;;2.25;1.23;;;18.60;67.70;;;;;;5033449;28;20369;-70
2022/04/15 05:33:10;;;;;;;1.38;1.00;;;18.50;67.70;;;;;;5033310;28;20412;-71
2022/04/15 05:35:36;;;;;;;2.13;0.90;;;18.50;67.70;;;;;;5030986;28;20033;-70
2022/04/15 05:38:02;;;;;;;1.67;1.33;;;18.50;67.70;;;;;;5063103;28;20468;-70
2022/04/15 05:40:28;;;;;;;1.60;1.42;;;18.50;67.30;;;;;;5044397;28;20453;-70
2022/04/15 05:42:54;;;;;;;1.55;1.40;;;18.40;66.10;;;;;;5033237;28;20625;-70
2022/04/15 05:45:20;;;;;;;1.50;1.40;;;18.20;65.20;;;;;;5062625;28;20017;-70
2022/04/15 05:47:46;;;;;;;4.97;1.50;;;18.00;65.00;;;;;;5062728;28;20404;-70
2022/04/15 05:50:11;;;;;;;3.10;1.58;;;17.90;64.80;;;;;;5030889;28;20021;-70
2022/04/15 05:52:38;;;;;;;10.20;1.70;;;17.70;64.50;;;;;;5033879;28;20515;-70
2022/04/15 05:55:05;;;;;;;8.25;1.80;;;17.60;64.60;;;;;;5032782;28;20021;-70
2022/04/15 05:57:30;;;;;;;3.63;1.42;;;17.50;64.20;;;;;;5030934;28;20029;-70
2022/04/15 05:59:56;;;;;;;1.95;1.60;;;17.40;64.10;;;;;;5033630;28;20029;-70
2022/04/15 06:02:22;;;;;;;2.25;1.55;;;17.30;63.90;;;;;;5032829;28;20113;-70
2022/04/15 06:04:48;;;;;;;1.55;1.40;;;17.20;63.40;;;;;;5032805;28;20049;-70
2022/04/15 06:07:14;;;;;;;1.67;1.50;;;17.20;63.50;;;;;;5032072;28;20055;-70
2022/04/15 06:09:39;;;;;;;3.55;1.88;;;17.10;63.30;;;;;;5062475;28;20483;-70
2022/04/15 06:12:06;;;;;;;2.75;1.75;;;17.00;63.40;;;;;;5032874;28;20029;-70
2022/04/15 06:14:35;;;;;;;2.30;1.65;;;17.00;63.20;;;;;;5032875;28;20492;-70
2022/04/15 06:17:01;;;;;;;2.28;1.90;;;16.90;63.10;;;;;;5031436;28;20029;-70
2022/04/15 06:19:27;;;;;;;3.55;1.67;;;16.90;62.90;;;;;;5030485;28;20056;-70
2022/04/15 06:21:53;;;;;;;2.33;1.92;;;16.90;62.80;;;;;;5032252;28;20053;-70
2022/04/15 06:24:19;;;;;;;1.85;1.67;;;16.80;62.70;;;;;;5062555;28;20021;-70
2022/04/15 06:26:45;;;;;;;1.67;1.58;;;16.80;62.60;;;;;;5033436;28;20053;-68
2022/04/15 06:29:10;;;;;;;1.30;1.15;;;16.70;62.50;;;;;;5062652;28;20621;-69
2022/04/15 06:31:36;;;;;;;1.92;1.38;;;16.70;62.50;;;;;;5030262;28;20030;-68
2022/04/15 06:34:03;;;;;;;4.25;2.05;;;16.60;62.30;;;;;;5030730;28;20059;-68
2022/04/15 06:36:29;;;;;;;2.90;1.90;;;16.50;62.00;;;;;;5029966;28;20033;-68
2022/04/15 06:38:54;;;;;;;1.98;1.77;;;16.50;62.10;;;;;;5031384;28;20032;-68
2022/04/15 06:41:20;;;;;;;1.90;1.80;;;16.50;62.00;;;;;;5031429;28;20025;-68
2022/04/15 06:43:45;;;;;;;2.28;2.03;;;16.40;62.00;;;;;;5031128;28;20440;-68
2022/04/15 06:46:11;;;;;;;4.95;1.80;;;16.40;61.90;;;;;;5030212;28;20054;-68
2022/04/15 06:48:37;;;;;;;2.47;1.70;;;16.40;61.90;;;;;;5031396;28;20033;-68
2022/04/15 06:51:02;;;;;;;1.80;1.70;;;16.40;61.90;;;;;;5030962;28;20511;-68
2022/04/15 06:53:28;;;;;;;2.03;1.90;;;16.30;61.80;;;;;;5031083;28;20032;-68
2022/04/15 06:55:54;;;;;;;3.15;1.60;;;16.30;61.70;;;;;;5032046;28;20037;-68
2022/04/15 06:58:20;;;;;;;3.05;1.90;;;16.20;61.60;;;;;;5033951;28;20025;-68
2022/04/15 07:00:48;;;;;;;2.72;2.00;;;16.20;61.60;;;;;;5034810;28;20030;-68
2022/04/15 07:03:14;;;;;;;1.70;1.60;;;16.20;61.70;;;;;;5034471;28;20040;-68
2022/04/15 07:05:40;;;;;;;2.45;2.25;;;16.20;61.60;;;;;;5034832;28;20495;-68
2022/04/15 07:08:08;;;;;;;2.58;2.35;;;16.20;61.50;;;;;;5034615;28;20024;-68
2022/04/15 07:10:35;;;;;;;2.63;2.42;;;16.10;61.40;;;;;;5034659;28;20030;-68
2022/04/15 07:13:01;;;;;;;4.07;2.60;;;16.10;61.40;;;;;;5035720;28;20025;-68
2022/04/15 07:15:26;;;;;;;3.13;2.88;;;16.10;61.40;;;;;;5035912;28;20032;-68
2022/04/15 07:17:52;;;;;;;2.60;2.40;;;16.10;61.40;;;;;;5035547;28;20079;-68
2022/04/15 07:20:18;;;;;;;5.70;2.90;;;16.00;61.40;;;;;;5035588;28;20036;-68
2022/04/15 07:22:43;;;;;;;3.85;2.78;;;16.00;61.50;;;;;;5035378;28;20507;-68
2022/04/15 07:25:09;;;;;;;3.75;3.10;;;16.00;61.50;;;;;;5035507;28;20018;-68
2022/04/15 07:27:35;;;;;;;3.38;2.75;;;16.00;61.60;;;;;;5034417;28;20475;-68
2022/04/15 07:30:01;;;;;;;3.83;3.25;;;15.90;61.50;;;;;;5035523;28;20394;-68
2022/04/15 07:32:28;;;;;;;3.78;3.25;;;15.90;61.50;;;;;;5017694;28;20025;-68
2022/04/15 07:34:54;;;;;;;2.72;2.53;;;15.90;61.50;;;;;;5034155;28;20028;-68
2022/04/15 07:37:20;;;;;;;3.40;3.10;;;15.90;61.60;;;;;;5034424;28;20033;-68
2022/04/15 07:39:45;;;;;;;2.95;2.75;;;15.90;61.60;;;;;;5034152;28;20040;-68
2022/04/15 07:42:12;;;;;;;5.50;2.88;;;15.90;61.70;;;;;;5034931;28;20068;-68
2022/04/15 07:44:41;;;;;;;3.33;2.88;;;15.90;61.70;;;;;;5034168;28;20049;-68
2022/04/15 07:47:08;;;;;;;3.45;2.67;;;15.90;61.70;;;;;;5034716;28;20053;-68
2022/04/15 07:49:34;;;;;;;2.85;2.65;;;15.90;61.80;;;;;;5033939;28;20026;-68
2022/04/15 07:52:01;;;;;;;3.00;2.70;;;15.90;61.80;;;;;;5035069;28;20021;-68
2022/04/15 07:54:27;;;;;;;3.90;2.90;;;15.90;61.80;;;;;;5030523;28;20045;-68
2022/04/15 07:56:52;;;;;;;4.80;3.03;;;15.90;61.90;;;;;;5015361;28;20026;-68
2022/04/15 07:59:19;;;;;;;3.00;2.70;;;15.90;62.00;;;;;;5015045;28;20030;-68
2022/04/15 08:01:45;;;;;;;4.32;2.70;;;15.90;62.00;;;;;;5015099;28;20106;-68
2022/04/15 08:04:11;;;;;;;3.17;2.88;;;15.90;62.10;;;;;;5014908;28;20053;-68
2022/04/15 08:06:37;;;;;;;4.35;2.35;;;15.90;62.10;;;;;;5015219;28;20098;-68
2022/04/15 08:09:03;;;;;;;6.70;3.42;;;15.90;62.10;;;;;;5014760;28;20101;-68
2022/04/15 08:11:28;;;;;;;2.67;2.13;;;15.90;62.10;;;;;;5013848;28;20061;-68
2022/04/15 08:13:54;;;;;;;2.53;2.30;;;15.90;62.20;;;;;;5013603;28;20034;-68
2022/04/15 08:16:20;;;;;;;4.32;2.22;;;15.90;62.20;;;;;;5014738;28;20018;-68
2022/04/15 08:18:46;;;;;;;2.53;2.00;;;15.90;62.30;;;;;;5013566;28;20026;-68
2022/04/15 08:21:12;;;;;;;3.05;2.03;;;15.90;62.30;;;;;;5014503;28;20417;-68
2022/04/15 08:23:38;;;;;;;3.42;2.30;;;15.80;62.40;;;;;;5013515;28;20026;-68
2022/04/15 08:26:03;;;;;;;2.63;2.30;;;15.90;62.40;;;;;;5014624;28;20075;-68
2022/04/15 08:28:29;;;;;;;3.95;2.58;;;15.90;62.50;;;;;;5014252;28;20037;-68
2022/04/15 08:30:55;;;;;;;2.38;2.10;;;15.90;62.60;;;;;;5013533;28;20022;-68
2022/04/15 08:33:20;;;;;;;2.53;2.00;;;15.90;62.60;;;;;;5013430;28;20036;-68
2022/04/15 08:35:47;;;;;;;2.42;2.15;;;15.90;62.70;;;;;;5027075;28;20029;-68
2022/04/15 08:38:13;;;;;;;4.40;2.30;;;15.90;62.80;;;;;;5033979;28;20033;-68
2022/04/15 08:40:39;;;;;;;3.45;2.28;;;15.90;62.70;;;;;;5033085;28;20040;-68
2022/04/15 08:43:06;;;;;;;1.75;1.65;;;15.90;62.80;;;;;;5032444;28;20026;-68
2022/04/15 08:45:32;;;;;;;2.10;1.90;;;15.90;62.90;;;;;;5033145;28;20044;-68
2022/04/15 08:48:01;;;;;;;2.13;1.92;;;15.90;62.90;;;;;;5032737;28;20427;-68
2022/04/15 08:50:30;;;;;;;1.58;1.48;;;15.90;63.00;;;;;;5032782;28;20025;-68
2022/04/15 08:52:56;;;;;;;1.55;1.45;;;15.90;63.10;;;;;;5032856;28;20048;-68
2022/04/15 08:55:22;;;;;;;2.70;1.80;;;15.90;63.10;;;;;;5022898;28;20030;-68
2022/04/15 08:57:48;;;;;;;2.00;1.85;;;15.90;63.10;;;;;;5013844;28;20542;-68
2022/04/15 09:00:14;;;;;;;3.25;2.05;;;16.00;63.30;;;;;;5013928;28;20022;-68
2022/04/15 09:02:40;;;;;;;2.22;1.73;;;16.00;63.40;;;;;;5012694;28;20113;-68
2022/04/15 09:05:06;;;;;;;2.97;2.20;;;16.00;63.30;;;;;;5013763;28;20108;-68
2022/04/15 09:07:33;;;;;;;2.20;1.80;;;16.00;63.40;;;;;;5013692;28;20401;-68
2022/04/15 09:10:01;;;;;;;1.80;1.70;;;16.00;63.50;;;;;;5012759;28;20029;-68
2022/04/15 09:12:30;;;;;;;2.65;1.70;;;16.00;63.60;;;;;;5012338;28;20061;-68
2022/04/15 09:15:00;;;;;;;2.55;1.95;;;16.00;63.60;;;;;;5012636;28;20519;-68
2022/04/15 09:17:28;;;;;;;3.40;1.58;;;16.00;63.70;;;;;;5012475;28;20025;-68
2022/04/15 09:19:54;;;;;;;2.10;1.88;;;16.00;63.70;;;;;;5012036;28;20030;-68
2022/04/15 09:22:20;;;;;;;2.70;1.70;;;16.00;63.80;;;;;;5011923;28;20088;-68
2022/04/15 09:24:47;;;;;;;2.03;1.83;;;16.10;65.00;;;;;;5013573;28;20022;-68
2022/04/15 09:27:12;;;;;;;2.20;1.60;;;16.10;64.00;;;;;;5012052;28;20477;-68
2022/04/15 09:29:39;;;;;;;2.35;1.60;;;16.10;64.10;;;;;;5013536;28;20029;-68
2022/04/15 09:32:17;;;;;;;1.83;1.73;;;16.10;64.00;;;;;;5012535;28;20025;-68
2022/04/15 09:34:52;;;;;;;1.98;1.85;;;16.10;64.20;;;;;;5017176;28;20026;-68
2022/04/15 09:37:19;;;;;;;3.10;1.85;;;16.10;64.30;;;;;;5031986;28;20543;-68
2022/04/15 09:40:12;;;;;;;1.88;1.70;;;16.10;64.20;;;;;;5033136;28;20021;-68
2022/04/15 09:42:43;;;;;;;3.17;2.00;;;16.10;64.40;;;;;;5032828;28;20033;-68
2022/04/15 09:45:39;;;;;;;2.90;1.80;;;16.10;65.40;;;;;;5031686;28;20043;-68
2022/04/15 09:48:05;;;;;;;2.60;1.98;;;16.20;64.60;;;;;;5027475;28;20435;-68
2022/04/15 09:50:35;;;;;;;2.00;1.80;;;16.10;64.50;;;;;;5031590;28;20475;-68
2022/04/15 09:53:09;;;;;;;2.28;2.08;;;16.10;64.50;;;;;;5031599;28;20029;-68
2022/04/15 09:55:36;;;;;;;2.10;2.00;;;16.10;64.50;;;;;;5020031;28;20399;-68
2022/04/15 09:58:11;;;;;;;2.30;2.10;;;16.20;64.60;;;;;;5011886;28;20033;-68
2022/04/15 10:00:37;;;;;;;2.95;2.75;;;16.20;64.70;;;;;;5011986;28;20033;-68
2022/04/15 10:03:08;;;;;;;2.53;2.28;;;16.20;64.60;;;;;;5011731;28;20040;-68
2022/04/15 10:05:35;;;;;;;2.85;2.63;;;16.20;64.70;;;;;;5011730;28;20477;-68
2022/04/15 10:08:01;;;;;;;2.80;2.60;;;16.20;64.70;;;;;;5012937;28;20021;-68
2022/04/15 10:10:28;;;;;;;3.28;2.85;;;16.30;64.80;;;;;;5011390;28;20036;-68
2022/04/15 10:12:53;;;;;;;2.95;2.75;;;16.20;64.70;;;;;;5012838;28;20018;-68
2022/04/15 10:15:19;;;;;;;3.20;2.90;;;16.20;64.80;;;;;;5011437;28;20033;-68
2022/04/15 10:17:45;;;;;;;3.20;2.90;;;16.20;64.80;;;;;;5012752;28;20502;-68
2022/04/15 10:20:10;;;;;;;2.97;2.67;;;16.20;64.90;;;;;;5011326;28;20045;-68
2022/04/15 10:22:38;;;;;;;3.55;3.00;;;16.30;65.00;;;;;;5012734;28;20026;-68
2022/04/15 10:25:07;;;;;;;4.75;2.83;;;16.30;64.90;;;;;;5011340;28;20026;-68
2022/04/15 10:27:32;;;;;;;5.45;3.00;;;16.30;64.90;;;;;;5011462;28;20026;-68
2022/04/15 10:30:20;;;;;;;4.38;3.10;;;16.30;65.00;;;;;;5011521;28;20032;-68
2022/04/15 10:32:54;;;;;;;5.07;3.22;;;16.40;65.10;;;;;;5011235;28;20097;-68
2022/04/15 10:35:41;;;;;;;4.43;3.15;;;16.40;65.10;;;;;;5021469;28;20025;-68
2022/04/15 10:38:11;;;;;;;3.20;2.90;;;16.40;65.20;;;;;;5031496;28;20111;-68
2022/04/15 10:40:37;;;;;;;5.85;3.28;;;16.40;65.20;;;;;;5032059;28;20022;-68
2022/04/15 10:43:27;;;;;;;3.33;2.97;;;16.40;65.20;;;;;;5030921;28;20403;-68
2022/04/15 10:46:15;;;;;;;4.30;2.85;;;16.40;65.20;;;;;;5032178;28;20498;-68
2022/04/15 10:48:41;;;;;;;4.50;2.63;;;16.40;65.30;;;;;;5031137;28;20052;-68
2022/04/15 10:51:22;;;;;;;4.20;2.70;;;16.40;65.30;;;;;;5030785;28;20434;-68
2022/04/15 10:53:48;;;;;;;4.20;2.85;;;16.50;65.30;;;;;;5029781;28;20017;-68
2022/04/15 10:56:14;;;;;;;2.75;2.38;;;16.40;65.30;;;;;;5062442;28;20029;-69
2022/04/15 11:01:13;;;;;;;3.63;2.47;;;16.40;65.30;;;;;;5030757;28;20466;-68
2022/04/15 11:01:32;;;;;;;3.40;2.35;;;16.50;65.30;;;;;;5030481;28;20095;-68
2022/04/15 11:04:05;;;;;;;2.90;2.60;;;16.50;65.40;;;;;;5060530;28;20391;-67
2022/04/15 11:06:30;;;;;;;2.88;2.45;;;16.50;65.30;;;;;;5062528;28;20140;-67
2022/04/15 11:08:56;;;;;;;2.20;2.00;;;16.50;65.30;;;;;;5030345;28;20032;-67
2022/04/15 11:11:35;;;;;;;4.00;2.45;;;16.50;65.20;;;;;;5062449;28;20033;-67
2022/04/15 11:14:04;;;;;;;4.20;2.33;;;16.50;65.20;;;;;;5062441;28;20014;-68
2022/04/15 11:16:42;;;;;;;4.28;2.30;;;16.50;65.20;;;;;;5060464;28;20387;-68
2022/04/15 11:19:08;;;;;;;2.60;2.00;;;16.50;65.20;;;;;;5030775;28;20389;-68
2022/04/15 11:21:36;;;;;;;3.97;2.10;;;16.60;65.30;;;;;;5046060;28;20036;-68
2022/04/15 11:24:10;;;;;;;2.45;2.25;;;16.50;65.20;;;;;;5062910;28;20101;-68
2022/04/15 11:26:45;;;;;;;4.43;2.58;;;16.60;65.30;;;;;;5046653;28;20032;-68
2022/04/15 11:29:11;;;;;;;2.78;2.40;;;16.60;65.30;;;;;;5063971;28;20021;-68
2022/04/15 11:31:46;;;;;;;3.40;2.40;;;16.60;65.30;;;;;;5031860;28;20022;-68
2022/04/15 11:34:16;;;;;;;9.50;3.00;;;16.70;65.40;;;;;;5062887;28;20022;-68
2022/04/15 11:36:49;;;;;;;3.42;2.08;;;16.70;65.40;;;;;;5031870;28;20026;-68
2022/04/15 11:39:16;;;;;;;2.78;2.58;;;16.70;65.40;;;;;;5030610;28;20021;-68
2022/04/15 11:41:44;;;;;;;3.70;2.63;;;16.70;65.40;;;;;;5030457;28;20475;-68
2022/04/15 11:44:10;;;;;;;3.33;2.53;;;16.70;65.50;;;;;;5033047;28;20020;-68
2022/04/15 11:46:35;;;;;;;3.75;3.08;;;16.70;65.40;;;;;;5032512;28;20050;-68
2022/04/15 11:49:01;;;;;;;4.97;3.30;;;16.80;66.60;;;;;;5035219;28;20021;-68
2022/04/15 11:51:27;;;;;;;3.67;2.80;;;16.80;65.50;;;;;;5034867;28;20025;-68
2022/04/15 11:53:54;;;;;;;4.28;2.80;;;16.80;65.50;;;;;;5034015;28;20033;-68
2022/04/15 11:56:24;;;;;;;3.22;2.95;;;16.80;65.50;;;;;;5014921;28;20033;-68
2022/04/15 11:58:49;;;;;;;3.88;3.47;;;16.80;65.50;;;;;;5014108;28;20061;-68
2022/04/15 12:01:28;;;;;;;4.85;3.38;;;16.90;65.60;;;;;;5013855;28;20064;-68
2022/04/15 12:03:54;;;;;;;4.28;3.63;;;16.90;65.70;;;;;;5015238;28;20028;-68
2022/04/15 12:06:19;;;;;;;5.15;3.78;;;16.90;65.70;;;;;;5013667;28;20105;-68
2022/04/15 12:08:46;;;;;;;4.32;3.53;;;17.00;65.80;;;;;;5014042;28;20014;-68
2022/04/15 12:11:11;;;;;;;4.25;3.70;;;17.00;65.80;;;;;;5014871;28;20488;-68
2022/04/15 12:13:37;;;;;;;4.88;3.60;;;17.00;65.70;;;;;;5013871;28;20033;-68
2022/04/15 12:16:04;;;;;;;4.85;3.78;;;17.00;65.80;;;;;;5015089;28;20029;-68
2022/04/15 12:18:29;;;;;;;4.47;4.05;;;17.10;65.80;;;;;;5014623;28;20026;-68
2022/04/15 12:20:55;;;;;;;4.38;3.95;;;17.10;65.90;;;;;;5013237;28;20033;-68
2022/04/15 12:23:22;;;;;;;4.60;3.97;;;17.20;66.00;;;;;;5013624;28;20389;-68
2022/04/15 12:26:12;;;;;;;5.00;4.10;;;17.10;65.90;;;;;;5013433;28;20046;-68
2022/04/15 12:31:27;;;;;;;4.70;4.20;;;17.20;66.00;;;;;;5013515;28;20049;-68
2022/04/15 12:33:52;;;;;;;5.13;4.25;;;17.20;66.10;;;;;;5014617;28;20069;-68
2022/04/15 12:36:19;;;;;;;10.00;4.82;;;17.30;66.10;;;;;;5032272;28;20029;-68
2022/04/15 12:39:03;;;;;;;5.90;4.60;;;17.30;66.20;;;;;;5033206;28;20387;-68
2022/04/15 12:41:40;;;;;;;6.00;4.85;;;17.40;66.30;;;;;;5034012;28;20033;-68
2022/04/15 12:44:23;;;;;;;7.47;5.55;;;17.40;66.30;;;;;;5034313;28;20552;-68
2022/04/15 12:46:55;;;;;;;6.47;5.15;;;17.40;66.30;;;;;;5032801;28;20069;-69
2022/04/15 12:49:34;;;;;;;6.60;5.97;;;17.40;66.30;;;;;;5032834;28;20067;-68
2022/04/15 12:52:16;;;;;;;7.03;5.90;;;17.50;66.40;;;;;;5032979;28;20120;-68